Time;durP1;ratioP1;P1;durP2;ratioP2;P2;SDS_P1;SDS_P2;PMS_P1;PMS_P2;Temp;Humidity;BMP_temperature;BMP_pressure;BME280_temperature;BME280_humidity;BME280_pressure;Samples;Min_cycle;Max_cycle;Signal;HPM_P1;HPM_P2
2023/01/04 00:01:26;;;;;;;61.20;33.37;;;1.30;99.90;;;;;;5075223;28;20223;-78
2023/01/04 00:03:52;;;;;;;59.60;33.67;;;1.30;99.90;;;;;;5074721;28;20585;-78
2023/01/04 00:06:20;;;;;;;55.50;32.67;;;1.20;99.90;;;;;;5075018;28;20201;-78
2023/01/04 00:08:47;;;;;;;63.63;33.33;;;1.20;99.90;;;;;;5074939;28;20651;-77
2023/01/04 00:11:16;;;;;;;61.00;32.40;;;1.20;99.90;;;;;;5074781;28;20644;-77
2023/01/04 00:13:43;;;;;;;55.53;31.60;;;1.20;99.90;;;;;;5075105;28;20201;-78
2023/01/04 00:16:14;;;;;;;64.17;33.53;;;1.10;99.90;;;;;;5075019;28;20201;-77
2023/01/04 00:18:41;;;;;;;57.57;32.63;;;1.20;99.90;;;;;;5075263;28;20224;-77
2023/01/04 00:21:09;;;;;;;58.20;31.87;;;1.10;99.90;;;;;;5075609;28;20193;-76
2023/01/04 00:23:37;;;;;;;59.83;34.03;;;1.10;99.90;;;;;;5077618;28;20204;-78
2023/01/04 00:26:07;;;;;;;62.73;33.73;;;1.30;99.90;;;;;;5078112;28;20203;-77
2023/01/04 00:28:34;;;;;;;53.83;31.17;;;1.10;99.90;;;;;;5078149;28;20201;-76
2023/01/04 00:31:02;;;;;;;55.57;30.83;;;1.10;99.90;;;;;;5080762;28;20695;-77
2023/01/04 00:33:30;;;;;;;53.37;31.43;;;1.00;99.90;;;;;;5080947;28;20198;-77
2023/01/04 00:36:02;;;;;;;56.47;32.73;;;1.00;99.90;;;;;;5081171;28;20205;-77
2023/01/04 00:38:29;;;;;;;53.57;31.50;;;1.10;99.90;;;;;;5084769;28;20228;-77
2023/01/04 00:40:56;;;;;;;55.93;31.83;;;1.00;99.90;;;;;;5086712;28;20201;-77
2023/01/04 00:43:23;;;;;;;59.70;32.03;;;1.00;99.90;;;;;;5085590;28;20223;-77
2023/01/04 00:45:49;;;;;;;58.33;32.07;;;1.00;99.90;;;;;;5085772;28;20197;-77
2023/01/04 00:48:16;;;;;;;65.77;35.33;;;1.10;99.90;;;;;;5087311;28;20228;-77
2023/01/04 00:50:44;;;;;;;69.43;34.43;;;1.20;99.90;;;;;;5086559;28;20251;-77
2023/01/04 00:53:12;;;;;;;70.33;36.13;;;1.20;99.90;;;;;;5087530;28;20205;-77
2023/01/04 00:55:38;;;;;;;65.10;32.17;;;1.20;99.90;;;;;;5088439;28;20201;-77
2023/01/04 00:58:05;;;;;;;66.93;34.10;;;1.20;99.90;;;;;;5092749;28;20619;-78
2023/01/04 01:00:32;;;;;;;72.03;34.37;;;1.20;99.90;;;;;;5092441;28;20228;-77
2023/01/04 01:02:59;;;;;;;69.93;35.40;;;1.20;99.90;;;;;;5094397;28;20233;-78
2023/01/04 01:05:25;;;;;;;70.67;34.57;;;1.20;99.90;;;;;;5091084;28;20219;-77
2023/01/04 01:07:53;;;;;;;74.17;36.10;;;1.30;99.90;;;;;;5091171;28;20201;-77
2023/01/04 01:10:20;;;;;;;69.77;35.17;;;1.30;99.90;;;;;;5090791;28;20197;-77
2023/01/04 01:12:47;;;;;;;72.47;35.37;;;1.30;99.90;;;;;;5091101;28;20665;-77
2023/01/04 01:15:13;;;;;;;75.07;34.87;;;1.30;99.90;;;;;;5089523;28;20200;-77
2023/01/04 01:17:40;;;;;;;77.33;35.73;;;1.30;99.90;;;;;;5089418;28;20220;-76
2023/01/04 01:20:08;;;;;;;75.40;35.90;;;1.20;99.90;;;;;;5082343;28;20564;-76
2023/01/04 01:22:35;;;;;;;69.93;34.60;;;1.20;99.90;;;;;;5076522;28;20201;-77
2023/01/04 01:25:04;;;;;;;69.17;33.23;;;1.20;99.90;;;;;;5076729;28;20201;-77
2023/01/04 01:27:31;;;;;;;67.20;32.83;;;1.10;99.90;;;;;;5077383;28;20338;-77
2023/01/04 01:29:57;;;;;;;65.03;33.17;;;1.10;99.90;;;;;;5077292;28;20615;-77
2023/01/04 01:32:24;;;;;;;68.17;33.03;;;1.10;99.90;;;;;;5076925;28;20250;-77
2023/01/04 01:34:50;;;;;;;64.33;33.10;;;1.20;99.90;;;;;;5077106;28;20250;-77
2023/01/04 01:37:17;;;;;;;61.40;30.90;;;1.30;99.90;;;;;;5076560;28;20271;-77
2023/01/04 01:39:44;;;;;;;69.60;33.10;;;1.30;99.90;;;;;;5076335;28;20193;-78
2023/01/04 01:42:19;;;;;;;71.20;33.03;;;1.40;99.90;;;;;;5076592;28;20193;-77
2023/01/04 01:44:58;;;;;;;74.20;33.47;;;1.40;99.90;;;;;;5079542;28;20197;-77
2023/01/04 01:47:27;;;;;;;86.57;35.90;;;1.40;99.90;;;;;;5084471;28;20246;-77
2023/01/04 01:49:55;;;;;;;98.77;35.93;;;1.50;99.90;;;;;;5085181;28;20250;-77
2023/01/04 01:52:26;;;;;;;125.87;36.97;;;1.50;99.90;;;;;;5086639;28;20197;-77
2023/01/04 01:54:56;;;;;;;123.73;37.57;;;1.60;99.90;;;;;;5089181;28;20261;-76
2023/01/04 01:57:27;;;;;;;474.83;65.90;;;1.60;99.90;;;;;;5090211;28;20221;-76
2023/01/04 01:59:59;;;;;;;106.67;37.13;;;1.70;99.90;;;;;;5089981;28;20201;-77
2023/01/04 02:02:25;;;;;;;103.23;36.83;;;1.70;99.90;;;;;;5090367;28;20197;-77
2023/01/04 02:04:52;;;;;;;110.33;35.83;;;1.80;99.90;;;;;;5091523;28;20229;-77
2023/01/04 02:07:21;;;;;;;132.03;37.73;;;1.80;99.90;;;;;;5090544;28;20713;-76
2023/01/04 02:09:49;;;;;;;108.70;37.13;;;1.80;99.90;;;;;;5090714;28;20219;-77
2023/01/04 02:12:16;;;;;;;95.37;38.07;;;1.90;99.90;;;;;;5091087;28;20193;-77
2023/01/04 02:14:47;;;;;;;99.80;37.30;;;1.90;99.90;;;;;;5090785;28;20201;-76
2023/01/04 02:17:22;;;;;;;87.23;38.70;;;1.90;99.90;;;;;;5091167;28;20186;-77
2023/01/04 02:20:23;;;;;;;88.37;36.60;;;1.90;99.90;;;;;;5090504;28;20234;-78
2023/01/04 02:23:25;;;;;;;84.07;36.67;;;1.90;99.90;;;;;;5089344;28;20232;-77
2023/01/04 02:26:14;;;;;;;73.10;35.57;;;2.00;99.90;;;;;;5089283;28;20204;-77
2023/01/04 02:29:00;;;;;;;78.73;36.67;;;2.00;99.90;;;;;;5088009;28;20326;-77
2023/01/04 02:31:39;;;;;;;79.57;36.53;;;2.00;99.90;;;;;;5087088;28;20248;-78
2023/01/04 02:34:13;;;;;;;77.97;35.80;;;2.10;99.90;;;;;;5088197;28;20223;-77
2023/01/04 02:36:44;;;;;;;91.43;36.17;;;2.10;99.90;;;;;;5087266;28;20641;-77
2023/01/04 02:39:28;;;;;;;69.33;34.00;;;2.10;99.90;;;;;;5087257;28;20224;-77
2023/01/04 02:42:04;;;;;;;78.10;34.80;;;2.20;99.90;;;;;;5086155;28;20227;-77
2023/01/04 02:44:52;;;;;;;78.60;35.60;;;2.20;99.90;;;;;;5085226;28;20227;-77
2023/01/04 02:50:31;;;;;;;77.83;35.37;;;2.30;99.90;;;;;;5078852;28;20291;-76
2023/01/04 02:53:00;;;;;;;67.57;32.27;;;2.30;99.90;;;;;;5078460;28;20197;-77
2023/01/04 02:55:33;;;;;;;68.30;32.77;;;2.20;99.90;;;;;;5078814;28;20193;-77
2023/01/04 02:58:08;;;;;;;80.20;33.43;;;2.30;99.90;;;;;;5078511;28;20224;-77
2023/01/04 03:06:37;;;;;;;64.87;31.17;;;2.30;99.90;;;;;;5078537;28;20196;-77
2023/01/04 03:09:08;;;;;;;61.47;29.07;;;2.30;99.90;;;;;;5079001;28;20219;-77
2023/01/04 03:14:29;;;;;;;59.17;29.60;;;2.40;99.90;;;;;;5074265;28;20212;-77
2023/01/04 03:16:56;;;;;;;120.43;32.63;;;2.30;99.90;;;;;;5074413;28;20201;-77
2023/01/04 03:35:21;;;;;;;126.03;30.90;;;2.20;99.90;;;;;;5074610;28;20587;-77
2023/01/04 03:36:11;;;;;;;51.23;26.03;;;2.20;99.90;;;;;;5075254;28;20232;-76
2023/01/04 03:50:03;;;;;;;44.50;22.47;;;2.10;99.90;;;;;;5075050;28;20200;-77
2023/01/04 03:52:33;;;;;;;43.63;22.90;;;2.10;99.90;;;;;;5074728;28;20254;-77
2023/01/04 03:55:01;;;;;;;47.37;23.27;;;2.10;99.90;;;;;;5074650;28;20204;-77
2023/01/04 03:57:28;;;;;;;46.53;23.00;;;2.10;99.90;;;;;;5074654;28;20197;-77
2023/01/04 04:00:00;;;;;;;46.50;22.67;;;2.10;99.90;;;;;;5075151;28;20201;-76
2023/01/04 04:02:30;;;;;;;46.03;23.23;;;2.20;99.90;;;;;;5075928;28;20200;-77
2023/01/04 04:10:26;;;;;;;47.47;21.77;;;2.10;99.90;;;;;;5076401;28;20267;-76
2023/01/04 04:12:53;;;;;;;44.23;21.67;;;2.20;99.90;;;;;;5080973;28;20203;-77
2023/01/04 04:15:19;;;;;;;43.97;21.27;;;2.20;99.90;;;;;;5081378;28;20205;-77
2023/01/04 04:17:46;;;;;;;199.90;31.33;;;2.10;99.90;;;;;;5081167;28;20197;-77
2023/01/04 04:20:12;;;;;;;40.30;19.80;;;2.20;99.90;;;;;;5082258;28;20196;-77
2023/01/04 04:22:39;;;;;;;40.80;19.90;;;2.20;99.90;;;;;;5081724;28;20198;-77
2023/01/04 04:25:08;;;;;;;41.17;20.73;;;2.20;99.90;;;;;;5081729;28;20247;-77
2023/01/04 04:27:34;;;;;;;41.30;19.97;;;2.30;99.90;;;;;;5080583;28;20242;-77
2023/01/04 04:30:02;;;;;;;42.93;21.93;;;2.20;99.90;;;;;;5079996;28;20215;-78
2023/01/04 04:32:28;;;;;;;35.20;18.97;;;2.20;99.90;;;;;;5079770;28;20203;-77
2023/01/04 04:34:55;;;;;;;40.53;20.30;;;2.20;99.90;;;;;;5080737;28;20228;-78
2023/01/04 04:37:22;;;;;;;40.60;20.17;;;2.20;99.90;;;;;;5080699;28;20205;-77
2023/01/04 04:39:48;;;;;;;40.83;19.70;;;2.20;99.90;;;;;;5080043;28;20229;-77
2023/01/04 04:42:15;;;;;;;43.03;20.20;;;2.30;99.90;;;;;;5080050;28;20216;-77
2023/01/04 04:44:42;;;;;;;39.43;19.67;;;2.30;99.90;;;;;;5079955;28;20229;-77
2023/01/04 04:47:08;;;;;;;43.43;20.60;;;2.30;99.90;;;;;;5080590;28;20254;-77
2023/01/04 04:49:35;;;;;;;39.90;20.27;;;2.20;99.90;;;;;;5080676;28;20227;-78
2023/01/04 04:52:01;;;;;;;39.17;19.60;;;2.30;99.90;;;;;;5079659;28;20607;-77
2023/01/04 04:54:28;;;;;;;42.60;20.43;;;2.30;99.90;;;;;;5081378;28;20723;-78
2023/01/04 04:56:55;;;;;;;42.10;20.70;;;2.20;99.90;;;;;;5080563;28;20197;-77
2023/01/04 04:59:23;;;;;;;41.23;20.20;;;2.20;99.90;;;;;;5079965;28;20217;-78
2023/01/04 05:01:51;;;;;;;42.10;20.40;;;2.20;99.90;;;;;;5080946;28;20200;-77
2023/01/04 05:04:18;;;;;;;40.50;19.87;;;2.20;99.90;;;;;;5080068;28;20278;-78
2023/01/04 05:06:46;;;;;;;45.30;20.93;;;2.20;99.90;;;;;;5079058;28;20224;-78
2023/01/04 05:09:12;;;;;;;48.73;21.47;;;2.20;99.90;;;;;;5076348;28;20197;-78
2023/01/04 05:14:25;;;;;;;42.93;20.53;;;2.30;99.90;;;;;;5076134;28;20216;-78
2023/01/04 05:16:52;;;;;;;49.80;22.83;;;2.30;99.90;;;;;;5076421;28;20201;-78
2023/01/04 05:19:18;;;;;;;46.50;22.40;;;2.30;99.90;;;;;;5076032;28;20222;-77
2023/01/04 05:21:45;;;;;;;44.70;21.27;;;2.30;99.90;;;;;;5076514;28;20198;-77
2023/01/04 05:24:12;;;;;;;45.33;21.90;;;2.30;99.90;;;;;;5075320;28;20202;-77
2023/01/04 05:26:39;;;;;;;52.00;23.30;;;2.20;99.90;;;;;;5076217;28;20197;-77
2023/01/04 05:29:06;;;;;;;49.10;22.87;;;2.30;99.90;;;;;;5076434;28;20193;-77
2023/01/04 05:31:33;;;;;;;51.33;23.63;;;2.20;99.90;;;;;;5076331;28;20197;-76
2023/01/04 05:33:59;;;;;;;51.63;22.93;;;2.40;99.90;;;;;;5076130;28;20652;-77
2023/01/04 05:36:26;;;;;;;46.03;21.97;;;2.40;99.90;;;;;;5076466;28;20339;-77
2023/01/04 05:38:52;;;;;;;48.23;23.27;;;2.50;99.90;;;;;;5076352;28;20263;-77
2023/01/04 05:44:03;;;;;;;44.77;21.93;;;2.60;99.90;;;;;;5076391;28;20327;-77
2023/01/04 05:46:30;;;;;;;46.70;21.80;;;2.70;99.90;;;;;;5076605;28;20711;-77
2023/01/04 05:48:58;;;;;;;46.60;21.73;;;2.80;99.90;;;;;;5076455;28;20205;-78
2023/01/04 05:51:24;;;;;;;47.07;22.10;;;2.80;99.90;;;;;;5076794;28;20228;-77
2023/01/04 05:53:51;;;;;;;40.57;20.77;;;2.80;99.90;;;;;;5077238;28;20197;-77
2023/01/04 05:56:19;;;;;;;43.30;20.27;;;2.90;99.90;;;;;;5077613;28;20194;-77
2023/01/04 05:58:45;;;;;;;44.03;18.87;;;2.90;99.90;;;;;;5077421;28;20221;-77
2023/01/04 06:01:12;;;;;;;39.97;19.03;;;2.90;99.90;;;;;;5077622;28;20202;-77
2023/01/04 06:03:39;;;;;;;40.33;19.93;;;3.00;99.90;;;;;;5077850;28;20287;-77
2023/01/04 06:06:09;;;;;;;38.90;19.00;;;3.00;99.90;;;;;;5077758;28;20202;-77
2023/01/04 06:08:36;;;;;;;40.57;18.87;;;3.00;99.90;;;;;;5078256;28;20198;-77
2023/01/04 06:11:02;;;;;;;33.87;17.80;;;3.00;99.90;;;;;;5083881;28;20283;-78
2023/01/04 06:13:29;;;;;;;35.83;18.20;;;3.10;99.90;;;;;;5085562;28;20199;-78
2023/01/04 06:15:55;;;;;;;36.60;18.33;;;3.10;99.90;;;;;;5079623;28;20263;-77
2023/01/04 06:18:22;;;;;;;36.27;16.57;;;3.00;99.90;;;;;;5079085;28;20252;-78
2023/01/04 06:20:51;;;;;;;37.77;18.13;;;3.00;99.90;;;;;;5081010;28;20227;-77
2023/01/04 06:23:19;;;;;;;30.97;15.67;;;3.10;99.90;;;;;;5080097;28;20611;-78
2023/01/04 06:25:45;;;;;;;31.73;16.23;;;3.10;99.90;;;;;;5080579;28;20194;-77
2023/01/04 06:28:12;;;;;;;29.13;14.73;;;3.20;99.90;;;;;;5079907;28;20305;-78
2023/01/04 06:30:38;;;;;;;32.47;16.37;;;3.20;99.90;;;;;;5081130;28;20200;-77
2023/01/04 06:33:05;;;;;;;31.27;15.30;;;3.20;99.90;;;;;;5081641;28;20197;-78
2023/01/04 06:35:32;;;;;;;31.07;16.70;;;3.20;99.90;;;;;;5079443;28;20199;-77
2023/01/04 06:37:58;;;;;;;27.20;14.70;;;3.20;99.90;;;;;;5080348;28;20661;-77
2023/01/04 06:40:27;;;;;;;28.93;15.57;;;3.30;99.90;;;;;;5080386;28;20253;-77
2023/01/04 06:42:54;;;;;;;28.27;14.23;;;3.40;99.90;;;;;;5079230;28;20198;-79
2023/01/04 06:45:20;;;;;;;24.90;13.67;;;3.40;99.90;;;;;;5078132;28;20564;-78
2023/01/04 06:47:47;;;;;;;26.83;15.03;;;3.40;99.90;;;;;;5078621;28;20197;-77
2023/01/04 06:50:14;;;;;;;23.40;14.07;;;3.50;99.90;;;;;;5077366;28;20228;-77
2023/01/04 06:52:41;;;;;;;21.40;13.10;;;3.50;99.90;;;;;;5077975;28;20207;-78
2023/01/04 06:55:09;;;;;;;22.10;12.93;;;3.60;99.90;;;;;;5077996;28;20288;-77
2023/01/04 06:57:37;;;;;;;21.40;12.77;;;3.60;99.90;;;;;;5079208;28;20199;-77
2023/01/04 07:00:05;;;;;;;20.30;12.17;;;3.60;99.90;;;;;;5078234;28;20280;-77
2023/01/04 07:02:31;;;;;;;21.63;12.13;;;3.60;99.90;;;;;;5076067;28;20204;-77
2023/01/04 07:04:58;;;;;;;19.97;11.03;;;3.70;99.90;;;;;;5077063;28;20195;-77
2023/01/04 07:07:25;;;;;;;16.90;10.43;;;3.70;99.90;;;;;;5080375;28;20204;-77
2023/01/04 07:09:51;;;;;;;17.17;10.27;;;3.80;99.90;;;;;;5080709;28;20666;-77
2023/01/04 07:12:18;;;;;;;15.40;9.27;;;3.90;99.90;;;;;;5082778;28;20200;-77
2023/01/04 07:14:46;;;;;;;16.60;10.07;;;4.00;99.90;;;;;;5080657;28;20209;-78
2023/01/04 07:17:12;;;;;;;13.27;9.13;;;4.00;99.90;;;;;;5079842;28;20603;-79
2023/01/04 07:19:39;;;;;;;14.63;9.10;;;4.10;99.90;;;;;;5079588;28;20235;-78
2023/01/04 07:22:05;;;;;;;12.77;9.03;;;4.10;99.90;;;;;;5080971;28;20204;-77
2023/01/04 07:24:32;;;;;;;11.67;8.07;;;4.20;99.90;;;;;;5082273;28;20649;-77
2023/01/04 07:26:59;;;;;;;13.07;8.60;;;4.20;99.90;;;;;;5083547;28;20261;-77
2023/01/04 07:29:26;;;;;;;10.93;8.13;;;4.20;99.90;;;;;;5082901;28;20256;-76
2023/01/04 07:31:54;;;;;;;12.03;8.10;;;4.30;99.90;;;;;;5084129;28;20222;-77
2023/01/04 07:34:22;;;;;;;11.47;8.37;;;4.30;99.90;;;;;;5082951;28;20317;-77
2023/01/04 07:36:49;;;;;;;10.43;7.53;;;4.30;99.90;;;;;;5080027;28;20259;-77
2023/01/04 07:39:17;;;;;;;10.07;6.90;;;4.40;99.90;;;;;;5083721;28;20467;-77
2023/01/04 07:41:45;;;;;;;11.50;7.63;;;4.40;99.90;;;;;;5083713;28;20243;-77
2023/01/04 07:44:13;;;;;;;9.13;6.80;;;4.40;99.90;;;;;;5082678;28;20222;-76
2023/01/04 07:46:39;;;;;;;9.27;6.50;;;4.50;99.90;;;;;;5082411;28;20197;-76
2023/01/04 07:49:11;;;;;;;8.27;5.63;;;4.50;99.90;;;;;;5084398;28;20209;-76
2023/01/04 07:51:38;;;;;;;8.33;5.80;;;4.60;99.90;;;;;;5085815;28;20199;-77
2023/01/04 07:54:04;;;;;;;7.47;5.27;;;4.60;99.90;;;;;;5085378;28;20235;-77
2023/01/04 07:56:31;;;;;;;6.90;5.23;;;4.70;99.90;;;;;;5082760;28;20525;-76
2023/01/04 07:58:58;;;;;;;7.17;5.20;;;4.70;99.90;;;;;;5081156;28;20226;-75
2023/01/04 08:01:26;;;;;;;6.57;4.60;;;4.70;99.90;;;;;;5081132;28;20209;-76
2023/01/04 08:03:53;;;;;;;6.60;4.47;;;4.80;99.90;;;;;;5081854;28;20225;-76
2023/01/04 08:06:21;;;;;;;8.47;4.97;;;4.80;99.90;;;;;;5082206;28;20711;-75
2023/01/04 08:08:48;;;;;;;7.27;4.97;;;4.90;99.90;;;;;;5082893;28;20193;-76
2023/01/04 08:11:17;;;;;;;5.67;4.27;;;4.90;99.90;;;;;;5084358;28;20242;-75
2023/01/04 08:13:44;;;;;;;5.37;4.43;;;4.90;99.90;;;;;;5086134;28;20201;-76
2023/01/04 08:16:19;;;;;;;5.40;3.80;;;4.90;99.90;;;;;;5086716;28;20223;-75
2023/01/04 08:18:46;;;;;;;4.90;4.23;;;4.90;99.90;;;;;;5086306;28;20282;-76
2023/01/04 08:21:13;;;;;;;5.00;3.50;;;5.00;99.90;;;;;;5085000;28;20243;-76
2023/01/04 08:23:41;;;;;;;4.07;3.63;;;5.10;99.90;;;;;;5084746;28;20208;-75
2023/01/04 08:26:10;;;;;;;4.27;3.57;;;5.20;99.90;;;;;;5085903;28;20223;-75
2023/01/04 08:28:37;;;;;;;5.03;3.80;;;5.20;99.90;;;;;;5077378;28;20193;-75
2023/01/04 08:31:06;;;;;;;4.40;3.80;;;5.20;99.90;;;;;;5077898;28;20201;-75
2023/01/04 08:33:33;;;;;;;3.97;3.53;;;5.20;99.90;;;;;;5080284;28;20193;-75
2023/01/04 08:36:08;;;;;;;5.43;3.93;;;5.20;99.90;;;;;;5080993;28;20726;-76
2023/01/04 08:38:34;;;;;;;4.90;3.77;;;5.20;99.90;;;;;;5082702;28;20197;-75
2023/01/04 08:41:02;;;;;;;4.10;3.20;;;5.20;99.90;;;;;;5081303;28;20221;-75
2023/01/04 08:43:29;;;;;;;4.47;3.50;;;5.30;99.90;;;;;;5082686;28;20731;-75
2023/01/04 08:45:56;;;;;;;4.33;3.10;;;5.30;99.90;;;;;;5082362;28;20215;-75
2023/01/04 08:48:22;;;;;;;7.50;3.20;;;5.40;99.90;;;;;;5083279;28;20197;-75
2023/01/04 08:50:49;;;;;;;3.67;2.97;;;5.40;99.90;;;;;;5083245;28;20641;-76
2023/01/04 08:53:16;;;;;;;4.63;3.10;;;5.40;99.90;;;;;;5082547;28;20208;-77
2023/01/04 08:55:49;;;;;;;3.40;2.93;;;5.50;99.90;;;;;;5081484;28;20201;-77
2023/01/04 08:58:17;;;;;;;3.57;2.90;;;5.50;99.90;;;;;;5082250;28;20223;-76
2023/01/04 09:00:43;;;;;;;3.03;2.53;;;5.50;99.90;;;;;;5062682;28;20221;-78
2023/01/04 09:03:10;;;;;;;4.10;2.90;;;5.60;99.90;;;;;;5056740;28;20605;-78
2023/01/04 09:05:37;;;;;;;4.03;2.73;;;5.70;99.90;;;;;;5057277;28;20201;-78
2023/01/04 09:08:04;;;;;;;3.33;2.53;;;5.80;99.90;;;;;;5076445;28;20189;-77
2023/01/04 09:10:33;;;;;;;3.03;2.57;;;5.80;99.90;;;;;;5076997;28;20201;-75
2023/01/04 09:12:59;;;;;;;3.13;2.37;;;5.90;99.90;;;;;;5076728;28;20197;-76
2023/01/04 09:15:27;;;;;;;2.60;2.40;;;5.90;99.90;;;;;;5077039;28;20193;-75
2023/01/04 09:17:54;;;;;;;2.30;2.10;;;5.90;99.90;;;;;;5076551;28;20232;-76
2023/01/04 09:20:21;;;;;;;4.60;2.33;;;6.00;99.90;;;;;;5077235;28;20252;-76
2023/01/04 09:22:47;;;;;;;2.43;1.97;;;6.00;99.90;;;;;;5076696;28;20655;-75
2023/01/04 09:25:14;;;;;;;3.63;1.80;;;6.10;99.90;;;;;;5076817;28;20246;-75
2023/01/04 09:27:40;;;;;;;1.77;1.67;;;6.20;99.90;;;;;;5077044;28;20193;-75
2023/01/04 09:30:08;;;;;;;2.43;1.77;;;6.20;99.90;;;;;;5076904;28;20201;-75
2023/01/04 09:32:36;;;;;;;2.10;1.73;;;6.30;99.90;;;;;;5076678;28;20599;-75
2023/01/04 09:35:03;;;;;;;1.67;1.57;;;6.40;99.90;;;;;;5076788;28;20227;-74
2023/01/04 09:37:30;;;;;;;1.87;1.53;;;6.40;99.90;;;;;;5077322;28;20193;-77
2023/01/04 09:39:56;;;;;;;1.53;1.23;;;6.50;99.90;;;;;;5077668;28;20229;-75
2023/01/04 09:42:30;;;;;;;2.97;1.50;;;6.50;99.90;;;;;;5077499;28;20197;-76
2023/01/04 09:45:01;;;;;;;1.70;1.50;;;6.60;99.90;;;;;;5077362;28;20197;-76
2023/01/04 09:47:40;;;;;;;2.00;1.40;;;6.70;99.90;;;;;;5076424;28;20219;-76
2023/01/04 09:50:15;;;;;;;2.40;1.60;;;6.80;99.90;;;;;;5076526;28;20274;-76
2023/01/04 09:52:51;;;;;;;1.30;1.20;;;6.90;99.90;;;;;;5077538;28;20196;-76
2023/01/04 09:55:21;;;;;;;2.67;1.37;;;7.00;99.90;;;;;;5075102;28;20261;-75
2023/01/04 09:57:51;;;;;;;4.40;1.23;;;7.10;99.90;;;;;;5074835;28;20196;-77
2023/01/04 10:00:23;;;;;;;2.37;1.50;;;7.10;99.90;;;;;;5070007;28;20700;-78
2023/01/04 10:02:56;;;;;;;2.33;1.50;;;7.30;99.90;;;;;;5076950;28;20229;-76
2023/01/04 10:05:27;;;;;;;1.40;1.00;;;7.30;99.90;;;;;;5074872;28;20250;-78
2023/01/04 10:07:54;;;;;;;2.83;1.30;;;7.10;99.90;;;;;;5078474;28;20607;-77
2023/01/04 10:10:36;;;;;;;1.50;1.10;;;7.10;99.90;;;;;;5078425;28;20204;-80
2023/01/04 10:13:13;;;;;;;1.67;1.30;;;7.10;99.90;;;;;;5084124;28;20219;-81
2023/01/04 10:15:49;;;;;;;2.17;1.50;;;7.10;99.90;;;;;;5084909;28;20196;-80
2023/01/04 10:18:27;;;;;;;1.90;1.50;;;7.10;99.90;;;;;;5088275;28;20223;-84
2023/01/04 10:21:07;;;;;;;2.30;1.37;;;7.20;99.90;;;;;;5094633;28;20220;-84
2023/01/04 10:23:45;;;;;;;1.93;1.20;;;7.20;99.90;;;;;;5084884;28;20221;-81
2023/01/04 10:26:14;;;;;;;1.53;1.00;;;7.20;99.90;;;;;;5088418;28;20201;-80
2023/01/04 10:29:03;;;;;;;1.30;1.20;;;7.30;99.90;;;;;;5081461;28;20197;-79
2023/01/04 10:31:35;;;;;;;1.60;1.30;;;7.30;99.90;;;;;;5088573;28;20201;-83
2023/01/04 10:34:21;;;;;;;1.93;1.20;;;7.40;99.90;;;;;;5091228;28;20537;-82
2023/01/04 10:36:49;;;;;;;1.43;1.20;;;7.30;99.90;;;;;;5087938;28;20200;-82
2023/01/04 10:39:17;;;;;;;2.97;1.47;;;7.40;99.90;;;;;;5079903;28;20197;-78
2023/01/04 10:41:52;;;;;;;2.47;1.50;;;7.40;99.90;;;;;;5079480;28;20228;-80
2023/01/04 10:44:24;;;;;;;1.37;1.27;;;7.40;99.90;;;;;;5080432;28;20200;-80
2023/01/04 10:46:57;;;;;;;2.60;1.40;;;7.40;99.90;;;;;;5083967;28;20196;-80
2023/01/04 10:49:38;;;;;;;2.40;1.23;;;7.40;99.90;;;;;;5093524;28;20197;-81
2023/01/04 10:52:09;;;;;;;1.83;1.40;;;7.40;99.90;;;;;;5087499;28;20201;-80
2023/01/04 10:54:41;;;;;;;2.13;1.40;;;7.50;99.90;;;;;;5087617;28;20606;-81
2023/01/04 10:57:12;;;;;;;2.00;1.30;;;7.40;99.90;;;;;;5081006;28;20614;-79
2023/01/04 10:59:43;;;;;;;2.77;1.30;;;7.50;99.90;;;;;;5080437;28;20227;-80
2023/01/04 11:02:19;;;;;;;1.90;1.30;;;7.50;99.90;;;;;;5087111;28;20250;-81
2023/01/04 11:04:55;;;;;;;3.40;1.53;;;7.60;99.90;;;;;;5094175;28;20258;-80
2023/01/04 11:07:28;;;;;;;1.97;1.60;;;7.70;99.90;;;;;;5090295;28;20246;-82
2023/01/04 11:09:59;;;;;;;1.40;1.10;;;7.70;99.90;;;;;;5090430;28;20554;-82
2023/01/04 11:12:26;;;;;;;1.70;1.23;;;7.70;99.90;;;;;;5087361;28;20193;-83
2023/01/04 11:14:53;;;;;;;2.83;1.40;;;7.80;99.90;;;;;;5087829;28;20352;-81
2023/01/04 11:17:21;;;;;;;2.00;1.60;;;7.90;99.90;;;;;;5090405;28;20204;-83
2023/01/04 11:19:49;;;;;;;2.47;1.47;;;7.90;99.90;;;;;;5088013;28;20197;-81
2023/01/04 11:22:21;;;;;;;2.70;1.70;;;8.00;99.90;;;;;;5089483;28;20204;-81
2023/01/04 11:24:51;;;;;;;2.33;1.40;;;8.10;99.90;;;;;;5095864;28;20197;-84
2023/01/04 11:27:24;;;;;;;2.63;1.20;;;8.20;99.90;;;;;;5080966;28;20201;-84
2023/01/04 11:29:56;;;;;;;1.33;1.20;;;8.30;99.90;;;;;;5076958;28;20223;-79
2023/01/04 11:32:35;;;;;;;2.70;1.33;;;8.40;99.90;;;;;;5097996;28;20200;-83
2023/01/04 11:35:03;;;;;;;2.40;1.27;;;8.40;99.90;;;;;;5095999;28;20208;-86
2023/01/04 11:37:33;;;;;;;2.20;1.33;;;8.40;99.90;;;;;;5094663;28;20307;-78
2023/01/04 11:40:24;;;;;;;2.57;1.27;;;8.50;99.90;;;;;;5098779;28;20646;-83
2023/01/04 11:42:53;;;;;;;2.43;1.13;;;8.50;99.90;;;;;;5096085;28;20204;-83
2023/01/04 11:45:23;;;;;;;1.90;1.37;;;8.50;99.90;;;;;;5097712;28;20222;-82
2023/01/04 11:47:52;;;;;;;1.40;1.30;;;8.60;99.90;;;;;;5096632;28;20200;-81
2023/01/04 11:50:38;;;;;;;2.33;1.40;;;8.70;99.90;;;;;;5081155;28;20200;-82
2023/01/04 11:53:23;;;;;;;2.13;1.40;;;8.80;99.90;;;;;;5098902;28;20189;-82
2023/01/04 11:55:50;;;;;;;1.40;1.30;;;8.80;99.90;;;;;;5090412;28;20197;-81
2023/01/04 11:58:19;;;;;;;3.27;1.30;;;8.80;99.90;;;;;;5092019;28;20262;-84
2023/01/04 12:00:51;;;;;;;2.00;1.43;;;8.70;99.90;;;;;;5091842;28;20224;-83
2023/01/04 12:03:28;;;;;;;1.80;1.57;;;8.60;99.90;;;;;;5092040;28;20224;-82
2023/01/04 12:05:57;;;;;;;2.87;1.33;;;8.60;99.90;;;;;;5096881;28;20196;-82
2023/01/04 12:08:30;;;;;;;3.27;1.60;;;8.50;99.90;;;;;;5094581;28;20197;-83
2023/01/04 12:10:58;;;;;;;1.77;1.40;;;8.60;99.90;;;;;;5095066;28;20235;-83
2023/01/04 12:13:25;;;;;;;3.33;1.60;;;8.50;99.90;;;;;;5093150;28;20200;-83
2023/01/04 12:16:03;;;;;;;1.50;1.30;;;8.50;99.90;;;;;;5092047;28;20197;-82
2023/01/04 12:18:34;;;;;;;2.87;1.50;;;8.50;99.90;;;;;;5081746;28;20192;-82
2023/01/04 12:21:03;;;;;;;1.83;1.40;;;8.50;99.90;;;;;;5075747;28;20692;-76
2023/01/04 12:26:07;;;;;;;1.33;1.23;;;8.60;99.90;;;;;;5076089;22;20216;-74
2023/01/04 12:28:38;;;;;;;3.07;1.60;;;8.60;99.90;;;;;;5072528;28;20204;-74
2023/01/04 12:31:32;;;;;;;3.50;1.40;;;8.70;99.90;;;;;;5072564;28;20270;-73
2023/01/04 12:34:21;;;;;;;2.43;1.40;;;8.70;99.90;;;;;;5040640;28;20212;-73
2023/01/04 12:36:57;;;;;;;1.97;1.57;;;8.70;99.90;;;;;;5075047;28;20201;-72
2023/01/04 12:39:40;;;;;;;1.23;1.10;;;8.80;99.90;;;;;;5076402;28;20258;-72
2023/01/04 12:42:25;;;;;;;1.37;1.10;;;8.80;99.90;;;;;;5076062;28;20248;-72
2023/01/04 12:45:17;;;;;;;3.40;1.50;;;8.70;99.90;;;;;;5076393;28;20246;-72
2023/01/04 12:50:30;;;;;;;1.40;1.30;;;8.70;99.90;;;;;;5076187;28;20201;-72
2023/01/04 12:53:02;;;;;;;2.87;1.40;;;8.70;99.90;;;;;;5075933;28;20730;-72
2023/01/04 12:55:59;;;;;;;3.20;1.30;;;8.70;99.90;;;;;;5076067;28;20197;-72
2023/01/04 12:58:42;;;;;;;2.50;1.50;;;8.70;99.90;;;;;;5076000;28;20208;-72
2023/01/04 13:01:23;;;;;;;2.30;1.30;;;8.70;99.90;;;;;;5076184;28;20282;-72
2023/01/04 13:03:55;;;;;;;3.30;1.50;;;8.70;99.90;;;;;;5075993;28;20254;-72
2023/01/04 13:06:23;;;;;;;2.77;1.43;;;8.70;99.90;;;;;;5075848;28;20223;-73
2023/01/04 13:08:52;;;;;;;1.77;1.20;;;8.70;99.90;;;;;;5075761;28;20227;-74
2023/01/04 13:11:38;;;;;;;3.10;1.30;;;8.80;99.90;;;;;;5075679;28;20197;-74
2023/01/04 13:14:09;;;;;;;2.87;1.50;;;8.80;99.90;;;;;;5075728;28;20201;-75
2023/01/04 13:16:44;;;;;;;2.73;1.40;;;8.80;99.90;;;;;;5075804;28;20200;-74
2023/01/04 13:19:17;;;;;;;2.63;1.50;;;8.80;99.90;;;;;;5075682;28;20196;-74
2023/01/04 13:21:46;;;;;;;2.00;1.30;;;8.80;99.90;;;;;;5075757;28;20224;-75
2023/01/04 13:24:22;;;;;;;1.40;1.20;;;8.70;99.90;;;;;;5075521;28;20237;-75
2023/01/04 13:26:48;;;;;;;2.50;1.00;;;8.70;99.90;;;;;;5075572;28;20203;-75
2023/01/04 13:29:18;;;;;;;3.17;1.20;;;8.80;99.90;;;;;;5075395;28;20258;-75
2023/01/04 13:31:52;;;;;;;2.23;1.43;;;8.80;99.90;;;;;;5075320;28;20258;-74
2023/01/04 13:34:21;;;;;;;3.50;1.33;;;8.70;99.90;;;;;;5075149;28;20197;-74
2023/01/04 13:36:55;;;;;;;1.83;1.10;;;8.80;99.90;;;;;;5075558;28;20201;-75
2023/01/04 13:39:24;;;;;;;2.53;1.23;;;8.80;99.90;;;;;;5070882;28;20227;-74
2023/01/04 13:41:51;;;;;;;1.33;1.17;;;8.80;99.90;;;;;;5075098;28;20221;-74
2023/01/04 13:44:25;;;;;;;3.07;1.40;;;8.80;99.90;;;;;;5074086;28;20196;-75
2023/01/04 13:46:54;;;;;;;2.67;1.70;;;8.80;99.90;;;;;;5075044;28;20197;-74
2023/01/04 13:49:22;;;;;;;2.87;1.43;;;8.80;99.90;;;;;;5074888;28;20251;-74
2023/01/04 13:51:49;;;;;;;3.53;1.50;;;8.80;99.90;;;;;;5074876;28;20212;-73
2023/01/04 13:54:21;;;;;;;1.90;1.40;;;8.80;99.90;;;;;;5074790;28;20258;-73